Terminal Aerodrome Forecast
Issued by NWS

Home | Current Version | Previous Version | Text Only | Print | Product List | Glossary On
Versions: 1 2 3 4 5 6 7 8 9 10 11 12 13 14 15 16 17 18 19 20 21 22 23 24 25 26 27 28 29
000
FTUS44 KFWD 270920 AAB
TAFAFW
TAF AMD
KAFW 270920Z 2709/2806 14005KT P6SM OVC012
     FM271000 14009KT 5SM BR OVC008
     FM271700 17014KT P6SM VCSH BKN015
     FM271900 19014KT P6SM SCT015 OVC050
     FM272200 18012KT P6SM SCT050
     FM280400 19012KT P6SM OVC015=

USA.gov is the U.S. government's official web portal to all federal, state and local government web resources and services.